sensor_id;sensor_type;location;lat;lon;timestamp;P1;durP1;ratioP1;P2;durP2;ratioP2
55483;SDS011;41345;51.704;5.146;2022-08-16T00:03:16;14.80;;;11.80;;
55483;SDS011;41345;51.704;5.146;2022-08-16T00:08:17;15.23;;;11.97;;
55483;SDS011;41345;51.704;5.146;2022-08-16T00:13:32;15.68;;;12.05;;
55483;SDS011;41345;51.704;5.146;2022-08-16T01:01:23;15.63;;;13.00;;
55483;SDS011;41345;51.704;5.146;2022-08-16T01:06:24;17.20;;;13.32;;
55483;SDS011;41345;51.704;5.146;2022-08-16T01:11:24;15.50;;;12.10;;
55483;SDS011;41345;51.704;5.146;2022-08-16T01:16:26;17.17;;;12.73;;
55483;SDS011;41345;51.704;5.146;2022-08-16T01:22:10;16.00;;;13.10;;
55483;SDS011;41345;51.704;5.146;2022-08-16T01:26:50;16.73;;;12.70;;
55483;SDS011;41345;51.704;5.146;2022-08-16T01:31:52;16.70;;;12.48;;
55483;SDS011;41345;51.704;5.146;2022-08-16T01:37:02;16.75;;;12.80;;
55483;SDS011;41345;51.704;5.146;2022-08-16T01:42:03;15.50;;;12.70;;
55483;SDS011;41345;51.704;5.146;2022-08-16T01:47:04;17.05;;;13.27;;
55483;SDS011;41345;51.704;5.146;2022-08-16T01:52:08;17.85;;;13.73;;
55483;SDS011;41345;51.704;5.146;2022-08-16T01:57:09;19.00;;;14.30;;
55483;SDS011;41345;51.704;5.146;2022-08-16T02:02:09;22.30;;;15.27;;
55483;SDS011;41345;51.704;5.146;2022-08-16T02:07:10;17.55;;;13.70;;
55483;SDS011;41345;51.704;5.146;2022-08-16T02:12:12;16.65;;;13.00;;
55483;SDS011;41345;51.704;5.146;2022-08-16T02:17:15;21.97;;;14.27;;
55483;SDS011;41345;51.704;5.146;2022-08-16T02:22:16;20.63;;;14.77;;
55483;SDS011;41345;51.704;5.146;2022-08-16T02:27:17;17.92;;;13.45;;
55483;SDS011;41345;51.704;5.146;2022-08-16T02:32:18;20.17;;;15.30;;
55483;SDS011;41345;51.704;5.146;2022-08-16T02:37:18;17.52;;;14.10;;
55483;SDS011;41345;51.704;5.146;2022-08-16T02:42:19;18.55;;;14.00;;
55483;SDS011;41345;51.704;5.146;2022-08-16T02:47:19;26.25;;;15.10;;
55483;SDS011;41345;51.704;5.146;2022-08-16T02:52:19;26.48;;;15.07;;
55483;SDS011;41345;51.704;5.146;2022-08-16T02:57:19;21.33;;;13.60;;
55483;SDS011;41345;51.704;5.146;2022-08-16T03:02:21;21.13;;;15.57;;
55483;SDS011;41345;51.704;5.146;2022-08-16T03:07:21;19.55;;;15.27;;
55483;SDS011;41345;51.704;5.146;2022-08-16T03:12:22;22.05;;;14.55;;
55483;SDS011;41345;51.704;5.146;2022-08-16T03:17:22;22.33;;;15.18;;
55483;SDS011;41345;51.704;5.146;2022-08-16T03:22:22;20.83;;;15.75;;
55483;SDS011;41345;51.704;5.146;2022-08-16T03:27:23;24.63;;;15.48;;
55483;SDS011;41345;51.704;5.146;2022-08-16T03:32:24;19.88;;;15.57;;
55483;SDS011;41345;51.704;5.146;2022-08-16T03:37:25;22.90;;;15.15;;
55483;SDS011;41345;51.704;5.146;2022-08-16T03:42:26;17.38;;;13.00;;
55483;SDS011;41345;51.704;5.146;2022-08-16T03:47:26;17.98;;;13.70;;
55483;SDS011;41345;51.704;5.146;2022-08-16T03:52:28;17.73;;;13.32;;
55483;SDS011;41345;51.704;5.146;2022-08-16T03:57:29;19.67;;;16.57;;
55483;SDS011;41345;51.704;5.146;2022-08-16T04:02:30;18.50;;;15.35;;
55483;SDS011;41345;51.704;5.146;2022-08-16T04:07:30;24.38;;;15.43;;
55483;SDS011;41345;51.704;5.146;2022-08-16T04:12:31;20.95;;;17.15;;
55483;SDS011;41345;51.704;5.146;2022-08-16T04:17:31;23.03;;;17.73;;
55483;SDS011;41345;51.704;5.146;2022-08-16T04:22:31;30.13;;;20.77;;
55483;SDS011;41345;51.704;5.146;2022-08-16T04:27:32;22.73;;;17.93;;
55483;SDS011;41345;51.704;5.146;2022-08-16T04:32:32;22.58;;;19.17;;
55483;SDS011;41345;51.704;5.146;2022-08-16T04:37:33;23.63;;;18.63;;
55483;SDS011;41345;51.704;5.146;2022-08-16T04:42:33;25.33;;;18.73;;
55483;SDS011;41345;51.704;5.146;2022-08-16T04:47:37;24.35;;;18.85;;
55483;SDS011;41345;51.704;5.146;2022-08-16T04:52:37;23.00;;;17.20;;
55483;SDS011;41345;51.704;5.146;2022-08-16T04:57:38;22.95;;;19.10;;
55483;SDS011;41345;51.704;5.146;2022-08-16T05:02:39;21.13;;;17.85;;
55483;SDS011;41345;51.704;5.146;2022-08-16T05:07:39;20.63;;;16.45;;
55483;SDS011;41345;51.704;5.146;2022-08-16T05:12:40;22.08;;;18.10;;
55483;SDS011;41345;51.704;5.146;2022-08-16T05:17:40;22.55;;;18.52;;
55483;SDS011;41345;51.704;5.146;2022-08-16T05:22:41;26.10;;;20.67;;
55483;SDS011;41345;51.704;5.146;2022-08-16T05:27:41;29.60;;;21.85;;
55483;SDS011;41345;51.704;5.146;2022-08-16T05:32:42;29.80;;;25.08;;
55483;SDS011;41345;51.704;5.146;2022-08-16T05:37:43;30.98;;;24.35;;
55483;SDS011;41345;51.704;5.146;2022-08-16T05:42:43;27.43;;;22.27;;
55483;SDS011;41345;51.704;5.146;2022-08-16T05:47:44;27.60;;;21.30;;
55483;SDS011;41345;51.704;5.146;2022-08-16T05:52:44;27.77;;;21.57;;
55483;SDS011;41345;51.704;5.146;2022-08-16T05:57:47;28.42;;;24.13;;
55483;SDS011;41345;51.704;5.146;2022-08-16T06:02:48;29.88;;;25.83;;
55483;SDS011;41345;51.704;5.146;2022-08-16T06:07:48;30.05;;;25.83;;
55483;SDS011;41345;51.704;5.146;2022-08-16T06:12:49;28.88;;;25.60;;
55483;SDS011;41345;51.704;5.146;2022-08-16T06:17:49;28.35;;;22.85;;
55483;SDS011;41345;51.704;5.146;2022-08-16T06:22:51;29.20;;;24.30;;
55483;SDS011;41345;51.704;5.146;2022-08-16T06:27:51;32.97;;;26.30;;
55483;SDS011;41345;51.704;5.146;2022-08-16T06:32:52;30.02;;;24.75;;
55483;SDS011;41345;51.704;5.146;2022-08-16T06:37:52;32.42;;;25.73;;
55483;SDS011;41345;51.704;5.146;2022-08-16T06:42:52;36.28;;;26.65;;
55483;SDS011;41345;51.704;5.146;2022-08-16T06:47:53;36.90;;;28.33;;
55483;SDS011;41345;51.704;5.146;2022-08-16T06:52:53;34.45;;;28.45;;
55483;SDS011;41345;51.704;5.146;2022-08-16T06:57:53;34.92;;;29.60;;
55483;SDS011;41345;51.704;5.146;2022-08-16T07:02:53;38.83;;;30.23;;
55483;SDS011;41345;51.704;5.146;2022-08-16T07:07:55;39.47;;;29.58;;
55483;SDS011;41345;51.704;5.146;2022-08-16T07:12:55;35.92;;;29.33;;
55483;SDS011;41345;51.704;5.146;2022-08-16T07:17:56;34.55;;;27.15;;
55483;SDS011;41345;51.704;5.146;2022-08-16T07:22:56;35.08;;;27.85;;
55483;SDS011;41345;51.704;5.146;2022-08-16T07:27:58;33.80;;;29.95;;
55483;SDS011;41345;51.704;5.146;2022-08-16T07:32:58;37.28;;;30.05;;
55483;SDS011;41345;51.704;5.146;2022-08-16T07:37:59;34.65;;;30.05;;
55483;SDS011;41345;51.704;5.146;2022-08-16T07:43:00;37.85;;;30.52;;
55483;SDS011;41345;51.704;5.146;2022-08-16T07:48:00;33.30;;;28.17;;
55483;SDS011;41345;51.704;5.146;2022-08-16T07:53:01;34.50;;;26.60;;
55483;SDS011;41345;51.704;5.146;2022-08-16T07:58:02;31.30;;;26.00;;
55483;SDS011;41345;51.704;5.146;2022-08-16T08:03:03;29.52;;;24.85;;
55483;SDS011;41345;51.704;5.146;2022-08-16T08:08:03;30.20;;;25.33;;
55483;SDS011;41345;51.704;5.146;2022-08-16T08:13:04;35.28;;;28.83;;
55483;SDS011;41345;51.704;5.146;2022-08-16T08:18:04;31.75;;;27.35;;
55483;SDS011;41345;51.704;5.146;2022-08-16T08:23:04;30.08;;;26.02;;
55483;SDS011;41345;51.704;5.146;2022-08-16T08:28:05;32.47;;;26.42;;
55483;SDS011;41345;51.704;5.146;2022-08-16T08:33:05;33.83;;;26.33;;
55483;SDS011;41345;51.704;5.146;2022-08-16T08:38:06;28.67;;;24.40;;
55483;SDS011;41345;51.704;5.146;2022-08-16T08:43:07;30.42;;;24.13;;
55483;SDS011;41345;51.704;5.146;2022-08-16T08:48:12;30.77;;;25.40;;
55483;SDS011;41345;51.704;5.146;2022-08-16T08:53:13;31.05;;;23.85;;
55483;SDS011;41345;51.704;5.146;2022-08-16T08:58:13;26.08;;;21.55;;
55483;SDS011;41345;51.704;5.146;2022-08-16T09:03:13;28.02;;;23.27;;
55483;SDS011;41345;51.704;5.146;2022-08-16T09:08:14;26.83;;;23.02;;
55483;SDS011;41345;51.704;5.146;2022-08-16T09:13:14;28.15;;;21.65;;
55483;SDS011;41345;51.704;5.146;2022-08-16T09:18:15;29.02;;;22.52;;
55483;SDS011;41345;51.704;5.146;2022-08-16T09:23:19;26.30;;;21.25;;
55483;SDS011;41345;51.704;5.146;2022-08-16T09:28:19;24.05;;;20.27;;
55483;SDS011;41345;51.704;5.146;2022-08-16T09:33:20;23.02;;;19.40;;
55483;SDS011;41345;51.704;5.146;2022-08-16T09:38:21;24.02;;;18.35;;
55483;SDS011;41345;51.704;5.146;2022-08-16T09:43:22;26.17;;;20.38;;
55483;SDS011;41345;51.704;5.146;2022-08-16T09:48:23;28.85;;;20.80;;
55483;SDS011;41345;51.704;5.146;2022-08-16T09:53:25;24.30;;;21.42;;
55483;SDS011;41345;51.704;5.146;2022-08-16T09:58:25;27.45;;;22.75;;
55483;SDS011;41345;51.704;5.146;2022-08-16T10:03:26;26.23;;;23.40;;
55483;SDS011;41345;51.704;5.146;2022-08-16T10:08:26;22.42;;;19.02;;
55483;SDS011;41345;51.704;5.146;2022-08-16T10:13:27;37.78;;;23.52;;
55483;SDS011;41345;51.704;5.146;2022-08-16T10:18:28;25.05;;;20.20;;
55483;SDS011;41345;51.704;5.146;2022-08-16T10:23:29;23.00;;;20.65;;
55483;SDS011;41345;51.704;5.146;2022-08-16T10:28:29;24.38;;;21.70;;
55483;SDS011;41345;51.704;5.146;2022-08-16T10:33:30;24.20;;;21.07;;
55483;SDS011;41345;51.704;5.146;2022-08-16T10:38:35;22.13;;;18.70;;
55483;SDS011;41345;51.704;5.146;2022-08-16T10:43:36;22.45;;;17.88;;
55483;SDS011;41345;51.704;5.146;2022-08-16T10:48:38;20.27;;;16.75;;
55483;SDS011;41345;51.704;5.146;2022-08-16T10:53:39;21.27;;;18.20;;
55483;SDS011;41345;51.704;5.146;2022-08-16T10:58:39;19.67;;;16.67;;
55483;SDS011;41345;51.704;5.146;2022-08-16T11:03:40;24.00;;;17.77;;
55483;SDS011;41345;51.704;5.146;2022-08-16T11:08:40;21.40;;;15.60;;
55483;SDS011;41345;51.704;5.146;2022-08-16T11:13:40;34.13;;;18.60;;
55483;SDS011;41345;51.704;5.146;2022-08-16T11:18:41;30.25;;;17.88;;
55483;SDS011;41345;51.704;5.146;2022-08-16T11:23:41;21.15;;;14.75;;
55483;SDS011;41345;51.704;5.146;2022-08-16T11:28:42;15.35;;;12.80;;
55483;SDS011;41345;51.704;5.146;2022-08-16T11:33:42;16.23;;;13.50;;
55483;SDS011;41345;51.704;5.146;2022-08-16T11:38:43;15.88;;;7.97;;
55483;SDS011;41345;51.704;5.146;2022-08-16T11:43:43;15.80;;;9.37;;
55483;SDS011;41345;51.704;5.146;2022-08-16T11:48:45;12.50;;;10.23;;
55483;SDS011;41345;51.704;5.146;2022-08-16T11:53:47;22.48;;;11.48;;
55483;SDS011;41345;51.704;5.146;2022-08-16T11:58:47;17.53;;;11.20;;
55483;SDS011;41345;51.704;5.146;2022-08-16T12:03:48;12.13;;;8.38;;
55483;SDS011;41345;51.704;5.146;2022-08-16T12:08:48;16.00;;;9.10;;
55483;SDS011;41345;51.704;5.146;2022-08-16T12:13:49;20.92;;;9.52;;
55483;SDS011;41345;51.704;5.146;2022-08-16T12:18:50;15.02;;;9.75;;
55483;SDS011;41345;51.704;5.146;2022-08-16T12:23:51;17.05;;;10.52;;
55483;SDS011;41345;51.704;5.146;2022-08-16T12:28:51;20.08;;;9.85;;
55483;SDS011;41345;51.704;5.146;2022-08-16T12:33:52;13.48;;;9.57;;
55483;SDS011;41345;51.704;5.146;2022-08-16T12:38:53;15.95;;;8.88;;
55483;SDS011;41345;51.704;5.146;2022-08-16T12:43:54;14.75;;;8.07;;
55483;SDS011;41345;51.704;5.146;2022-08-16T12:48:54;18.98;;;9.20;;
55483;SDS011;41345;51.704;5.146;2022-08-16T12:53:59;18.48;;;9.75;;
55483;SDS011;41345;51.704;5.146;2022-08-16T12:59:00;13.52;;;8.52;;
55483;SDS011;41345;51.704;5.146;2022-08-16T13:04:02;13.60;;;8.13;;
55483;SDS011;41345;51.704;5.146;2022-08-16T13:09:06;15.43;;;8.70;;
55483;SDS011;41345;51.704;5.146;2022-08-16T13:19:19;14.02;;;7.57;;
55483;SDS011;41345;51.704;5.146;2022-08-16T13:24:20;14.30;;;8.27;;
55483;SDS011;41345;51.704;5.146;2022-08-16T13:29:20;15.93;;;7.43;;
55483;SDS011;41345;51.704;5.146;2022-08-16T13:34:20;9.55;;;6.55;;
55483;SDS011;41345;51.704;5.146;2022-08-16T13:39:21;12.35;;;6.72;;
55483;SDS011;41345;51.704;5.146;2022-08-16T13:44:21;21.83;;;6.43;;
55483;SDS011;41345;51.704;5.146;2022-08-16T13:49:22;8.82;;;3.40;;
55483;SDS011;41345;51.704;5.146;2022-08-16T13:54:22;13.80;;;4.73;;
55483;SDS011;41345;51.704;5.146;2022-08-16T13:59:22;94.05;;;9.95;;
55483;SDS011;41345;51.704;5.146;2022-08-16T14:04:23;9.37;;;4.00;;
55483;SDS011;41345;51.704;5.146;2022-08-16T14:09:25;11.23;;;3.58;;
55483;SDS011;41345;51.704;5.146;2022-08-16T14:14:25;13.50;;;3.67;;
55483;SDS011;41345;51.704;5.146;2022-08-16T14:19:26;12.52;;;3.63;;
55483;SDS011;41345;51.704;5.146;2022-08-16T14:24:27;22.48;;;3.78;;
55483;SDS011;41345;51.704;5.146;2022-08-16T14:29:27;6.80;;;3.25;;
55483;SDS011;41345;51.704;5.146;2022-08-16T14:34:28;9.13;;;2.83;;
55483;SDS011;41345;51.704;5.146;2022-08-16T14:39:28;4.95;;;2.67;;
55483;SDS011;41345;51.704;5.146;2022-08-16T14:44:28;7.00;;;2.50;;
55483;SDS011;41345;51.704;5.146;2022-08-16T14:49:30;10.63;;;3.00;;
55483;SDS011;41345;51.704;5.146;2022-08-16T14:54:30;5.53;;;2.72;;
55483;SDS011;41345;51.704;5.146;2022-08-16T14:59:31;39.83;;;4.13;;
55483;SDS011;41345;51.704;5.146;2022-08-16T15:04:31;5.35;;;3.05;;
55483;SDS011;41345;51.704;5.146;2022-08-16T15:09:34;15.33;;;3.40;;
55483;SDS011;41345;51.704;5.146;2022-08-16T15:14:35;8.67;;;2.53;;
55483;SDS011;41345;51.704;5.146;2022-08-16T15:19:35;6.80;;;3.20;;
55483;SDS011;41345;51.704;5.146;2022-08-16T15:24:36;8.68;;;2.92;;
55483;SDS011;41345;51.704;5.146;2022-08-16T15:29:37;20.50;;;3.75;;
55483;SDS011;41345;51.704;5.146;2022-08-16T15:34:38;28.30;;;5.13;;
55483;SDS011;41345;51.704;5.146;2022-08-16T15:39:43;6.22;;;4.30;;
55483;SDS011;41345;51.704;5.146;2022-08-16T15:44:44;12.50;;;4.15;;
55483;SDS011;41345;51.704;5.146;2022-08-16T15:49:44;7.15;;;3.60;;
55483;SDS011;41345;51.704;5.146;2022-08-16T15:54:47;7.18;;;3.80;;
55483;SDS011;41345;51.704;5.146;2022-08-16T15:59:48;15.27;;;3.80;;
55483;SDS011;41345;51.704;5.146;2022-08-16T16:04:48;8.75;;;3.83;;
55483;SDS011;41345;51.704;5.146;2022-08-16T16:09:49;14.25;;;4.38;;
55483;SDS011;41345;51.704;5.146;2022-08-16T16:14:49;11.77;;;4.10;;
55483;SDS011;41345;51.704;5.146;2022-08-16T16:19:49;7.68;;;4.25;;
55483;SDS011;41345;51.704;5.146;2022-08-16T16:24:50;7.22;;;4.15;;
55483;SDS011;41345;51.704;5.146;2022-08-16T16:29:51;18.85;;;5.70;;
55483;SDS011;41345;51.704;5.146;2022-08-16T16:34:51;10.48;;;4.05;;
55483;SDS011;41345;51.704;5.146;2022-08-16T16:39:52;8.38;;;4.63;;
55483;SDS011;41345;51.704;5.146;2022-08-16T16:44:52;8.83;;;4.90;;
55483;SDS011;41345;51.704;5.146;2022-08-16T16:49:52;9.13;;;5.30;;
55483;SDS011;41345;51.704;5.146;2022-08-16T16:54:53;7.97;;;5.13;;
55483;SDS011;41345;51.704;5.146;2022-08-16T16:59:53;11.77;;;5.17;;
55483;SDS011;41345;51.704;5.146;2022-08-16T17:04:55;11.30;;;5.95;;
55483;SDS011;41345;51.704;5.146;2022-08-16T17:09:55;7.97;;;5.50;;
55483;SDS011;41345;51.704;5.146;2022-08-16T17:14:55;12.32;;;5.72;;
55483;SDS011;41345;51.704;5.146;2022-08-16T17:19:56;10.80;;;5.40;;
55483;SDS011;41345;51.704;5.146;2022-08-16T17:24:56;8.32;;;5.65;;
55483;SDS011;41345;51.704;5.146;2022-08-16T17:29:57;9.47;;;5.73;;
55483;SDS011;41345;51.704;5.146;2022-08-16T17:34:57;8.83;;;4.87;;
55483;SDS011;41345;51.704;5.146;2022-08-16T17:39:58;7.38;;;5.22;;
55483;SDS011;41345;51.704;5.146;2022-08-16T17:45:00;7.70;;;5.10;;
55483;SDS011;41345;51.704;5.146;2022-08-16T17:50:02;11.40;;;6.55;;
55483;SDS011;41345;51.704;5.146;2022-08-16T18:00:05;9.07;;;6.20;;
55483;SDS011;41345;51.704;5.146;2022-08-16T18:05:08;8.43;;;5.55;;
55483;SDS011;41345;51.704;5.146;2022-08-16T18:10:14;16.48;;;6.20;;
55483;SDS011;41345;51.704;5.146;2022-08-16T18:15:14;9.52;;;5.78;;
55483;SDS011;41345;51.704;5.146;2022-08-16T18:20:15;10.48;;;5.43;;
55483;SDS011;41345;51.704;5.146;2022-08-16T18:25:34;7.13;;;4.68;;
55483;SDS011;41345;51.704;5.146;2022-08-16T18:30:35;8.35;;;5.15;;
55483;SDS011;41345;51.704;5.146;2022-08-16T18:35:35;13.37;;;7.87;;
55483;SDS011;41345;51.704;5.146;2022-08-16T18:40:36;12.27;;;8.68;;
55483;SDS011;41345;51.704;5.146;2022-08-16T18:45:37;13.07;;;9.25;;
55483;SDS011;41345;51.704;5.146;2022-08-16T18:50:38;16.33;;;12.40;;
55483;SDS011;41345;51.704;5.146;2022-08-16T18:55:39;18.75;;;16.08;;
55483;SDS011;41345;51.704;5.146;2022-08-16T19:00:41;25.58;;;22.52;;
55483;SDS011;41345;51.704;5.146;2022-08-16T19:05:43;31.65;;;25.02;;
55483;SDS011;41345;51.704;5.146;2022-08-16T19:10:45;29.27;;;23.30;;
55483;SDS011;41345;51.704;5.146;2022-08-16T19:15:46;28.15;;;23.10;;
55483;SDS011;41345;51.704;5.146;2022-08-16T19:20:47;33.38;;;27.65;;
55483;SDS011;41345;51.704;5.146;2022-08-16T19:25:50;35.13;;;30.05;;
55483;SDS011;41345;51.704;5.146;2022-08-16T19:30:50;37.83;;;30.10;;
55483;SDS011;41345;51.704;5.146;2022-08-16T19:35:51;37.92;;;30.90;;
55483;SDS011;41345;51.704;5.146;2022-08-16T19:40:51;40.95;;;31.13;;
55483;SDS011;41345;51.704;5.146;2022-08-16T19:45:52;38.92;;;32.22;;
55483;SDS011;41345;51.704;5.146;2022-08-16T19:50:52;39.95;;;32.88;;
55483;SDS011;41345;51.704;5.146;2022-08-16T19:55:53;39.03;;;33.85;;
55483;SDS011;41345;51.704;5.146;2022-08-16T20:00:53;40.63;;;33.07;;
55483;SDS011;41345;51.704;5.146;2022-08-16T20:05:53;35.65;;;31.77;;
55483;SDS011;41345;51.704;5.146;2022-08-16T20:10:54;42.35;;;33.85;;
55483;SDS011;41345;51.704;5.146;2022-08-16T20:15:54;39.45;;;33.03;;
55483;SDS011;41345;51.704;5.146;2022-08-16T20:20:55;45.35;;;36.50;;
55483;SDS011;41345;51.704;5.146;2022-08-16T20:25:56;40.70;;;36.10;;
55483;SDS011;41345;51.704;5.146;2022-08-16T20:30:56;40.63;;;36.10;;
55483;SDS011;41345;51.704;5.146;2022-08-16T20:35:56;45.80;;;38.67;;
55483;SDS011;41345;51.704;5.146;2022-08-16T20:40:57;45.53;;;38.23;;
55483;SDS011;41345;51.704;5.146;2022-08-16T20:45:57;44.07;;;38.63;;
55483;SDS011;41345;51.704;5.146;2022-08-16T20:50:57;43.57;;;37.43;;
55483;SDS011;41345;51.704;5.146;2022-08-16T20:55:58;48.57;;;41.23;;
55483;SDS011;41345;51.704;5.146;2022-08-16T21:00:58;50.80;;;45.10;;
55483;SDS011;41345;51.704;5.146;2022-08-16T21:05:59;45.33;;;39.40;;
55483;SDS011;41345;51.704;5.146;2022-08-16T21:11:02;50.00;;;43.55;;
55483;SDS011;41345;51.704;5.146;2022-08-16T21:16:03;49.15;;;43.15;;
55483;SDS011;41345;51.704;5.146;2022-08-16T21:21:03;46.97;;;40.22;;
55483;SDS011;41345;51.704;5.146;2022-08-16T21:26:04;52.97;;;42.43;;
55483;SDS011;41345;51.704;5.146;2022-08-16T21:31:04;40.88;;;36.42;;
55483;SDS011;41345;51.704;5.146;2022-08-16T21:36:04;50.40;;;42.70;;
55483;SDS011;41345;51.704;5.146;2022-08-16T21:41:05;53.85;;;43.42;;
55483;SDS011;41345;51.704;5.146;2022-08-16T21:46:06;47.17;;;40.25;;
55483;SDS011;41345;51.704;5.146;2022-08-16T21:51:12;52.00;;;42.30;;
55483;SDS011;41345;51.704;5.146;2022-08-16T21:56:13;43.65;;;38.88;;
55483;SDS011;41345;51.704;5.146;2022-08-16T22:01:13;51.70;;;42.58;;
55483;SDS011;41345;51.704;5.146;2022-08-16T22:06:14;54.15;;;46.10;;
55483;SDS011;41345;51.704;5.146;2022-08-16T22:11:14;52.85;;;45.88;;
55483;SDS011;41345;51.704;5.146;2022-08-16T22:16:14;50.33;;;44.93;;
55483;SDS011;41345;51.704;5.146;2022-08-16T22:21:15;59.42;;;50.05;;
55483;SDS011;41345;51.704;5.146;2022-08-16T22:26:15;57.65;;;49.83;;
55483;SDS011;41345;51.704;5.146;2022-08-16T22:31:15;52.00;;;45.60;;
55483;SDS011;41345;51.704;5.146;2022-08-16T22:36:16;57.25;;;47.15;;
55483;SDS011;41345;51.704;5.146;2022-08-16T22:41:17;63.30;;;54.00;;
55483;SDS011;41345;51.704;5.146;2022-08-16T22:46:17;57.42;;;47.55;;
55483;SDS011;41345;51.704;5.146;2022-08-16T22:51:18;52.83;;;46.80;;
55483;SDS011;41345;51.704;5.146;2022-08-16T22:56:19;59.10;;;52.65;;
55483;SDS011;41345;51.704;5.146;2022-08-16T23:01:20;47.80;;;42.58;;
55483;SDS011;41345;51.704;5.146;2022-08-16T23:06:21;57.55;;;50.70;;
55483;SDS011;41345;51.704;5.146;2022-08-16T23:11:24;57.33;;;50.08;;
55483;SDS011;41345;51.704;5.146;2022-08-16T23:16:26;54.20;;;48.40;;
55483;SDS011;41345;51.704;5.146;2022-08-16T23:21:26;54.38;;;48.35;;
55483;SDS011;41345;51.704;5.146;2022-08-16T23:26:27;59.43;;;53.20;;
55483;SDS011;41345;51.704;5.146;2022-08-16T23:31:27;50.70;;;45.22;;
55483;SDS011;41345;51.704;5.146;2022-08-16T23:36:27;50.03;;;44.10;;
55483;SDS011;41345;51.704;5.146;2022-08-16T23:41:28;71.53;;;59.47;;
55483;SDS011;41345;51.704;5.146;2022-08-16T23:46:32;60.22;;;50.92;;
55483;SDS011;41345;51.704;5.146;2022-08-16T23:51:32;66.83;;;55.50;;
55483;SDS011;41345;51.704;5.146;2022-08-16T23:56:33;69.45;;;59.90;;
